INFORMACIÓN METAR y TAF
METAR FOR LEXJ
ADDS - METARS form results

(2150 UTC 17 January 2020)
Data provider http://aviationweather.gov/metar/data/
 
METAR text: LEXJ 172130Z 00000KT 9999 FEW035 09/06 Q1032
Conditions at: LEXJ (SANTANDER/PARAYA, ES) observed 2130 UTC 17 January 2020
Temperature: 9.0°C (48°F)
Dewpoint: 6.0°C (43°F) [RH = 81%]
Pressure (altimeter): 30.47 inches Hg (1032.0 mb)
Winds: calm
Visibility: 6 or more miles (10+ km)
Ceiling: at least 12,000 feet AGL
Clouds: few clouds at 3500 feet AGL
Weather: no significant weather observed at this time

METAR text: LEXJ 172100Z 22004KT 9999 FEW032 SCT050 10/07 Q1032
Conditions at: LEXJ (SANTANDER/PARAYA, ES) observed 2100 UTC 17 January 2020
Temperature: 10.0°C (50°F)
Dewpoint: 7.0°C (45°F) [RH = 82%]
Pressure (altimeter): 30.47 inches Hg (1032.0 mb)
Winds: from the SW (220 degrees) at 5 MPH (4 knots; 2.1 m/s)
Visibility: 6 or more miles (10+ km)
Ceiling: at least 12,000 feet AGL
Clouds: few clouds at 3200 feet AGL
scattered clouds at 5000 feet AGL
Weather: no significant weather observed at this time

Forecast for: LEXJ (SANTANDER/PARAYA, ES)
Text: TAF LEXJ 172000Z 1721/1821 22009KT 9999 SCT040 TX14/1812Z TN06/1803Z
Forecast period: 2100 UTC 17 January 2020 to 2100 UTC 18 January 2020
Forecast type: FROM: standard forecast or significant change
Winds: from the SW (220 degrees) at 10 MPH (9 knots; 4.6 m/s)
Visibility: 6 or more miles 10+ km)
Ceiling: at least 12,000 feet AGL
Clouds: scattered clouds at 4000 feet AGL
Weather: no significant weather forecast for this period
Text: TEMPO 1812/1815 3000 RA SHRA SCT030TCU
Forecast period: 1200 to 1500 UTC 18 January 2020
Forecast type: TEMPORARY: The following changes expected for less than half the time period
Visibility: 1.86 miles (2.99 km)
Ceiling: at least 12,000 feet AGL
Clouds: scattered clouds at 3000 feet AGL
Weather: RA SHRA  (moderate rain, rain showers)

MAPA DE AEROPUERTO

INFORMACIÓN DE PISTA
Pista 11 Longitud 7612 ft Ancho 148 ft
Elevación 11 ft Umbral desplazado 0 ft Rumbo de pista 110
Pista 29 Longitud 7612 ft Ancho 148 ft
Elevación 12 ft Umbral desplazado 0 ft Rumbo de pista 290

FRECUANCIAS DEL AEROPUERTO
Tipo APP Nombre APP Frecuencia 118.375 MHZ
Tipo GND Nombre GND Frecuencia 121.7 MHZ
Tipo TWR Nombre TWR Frecuencia 118.1 MHZ

RADIO AYUDAS DEL AEROPUERTO
Tipo NDB Nombre Santander Frecuencia 416 KHZ
Tipo VOR-DME Nombre Santander Frecuencia 115300 KHZ